createdAt,value
2017-10-03T00:00:54.866Z,58.50
2017-10-03T00:01:54.966Z,57.90
2017-10-03T00:02:54.833Z,59.10
2017-10-03T00:03:54.875Z,58.40
2017-10-03T00:04:54.804Z,58.00
2017-10-03T00:05:54.888Z,58.70
2017-10-03T00:06:54.769Z,58.20
2017-10-03T00:07:54.793Z,57.70
2017-10-03T00:08:54.744Z,60.10
2017-10-03T00:09:54.819Z,57.50
2017-10-03T00:10:54.719Z,58.00
2017-10-03T00:11:54.731Z,59.10
2017-10-03T00:12:54.699Z,57.10
2017-10-03T00:13:54.743Z,58.70
2017-10-03T00:14:54.652Z,57.60
2017-10-03T00:15:54.755Z,58.30
2017-10-03T00:16:54.610Z,58.90
2017-10-03T00:17:54.664Z,57.60
2017-10-03T00:18:54.583Z,58.50
2017-10-03T00:19:54.684Z,57.80
2017-10-03T00:20:54.556Z,57.80
2017-10-03T00:21:54.594Z,59.90
2017-10-03T00:22:54.515Z,57.90
2017-10-03T00:23:54.617Z,58.60
2017-10-03T00:24:55.369Z,58.70
2017-10-03T00:25:54.519Z,58.30
2017-10-03T00:26:54.458Z,57.80
2017-10-03T00:27:54.554Z,57.50
2017-10-03T00:28:54.419Z,57.90
2017-10-03T00:29:54.554Z,57.80
2017-10-03T00:30:54.392Z,57.30
2017-10-03T00:31:54.466Z,58.70
2017-10-03T00:32:54.360Z,57.90
2017-10-03T00:33:54.477Z,59.60
2017-10-03T00:34:54.330Z,58.50
2017-10-03T00:35:54.391Z,56.90
2017-10-03T00:36:54.298Z,58.90
2017-10-03T00:37:54.408Z,57.30
2017-10-03T00:38:54.263Z,57.00
2017-10-03T00:39:54.321Z,58.80
2017-10-03T00:40:54.239Z,57.40
2017-10-03T00:41:54.335Z,57.40
2017-10-03T00:42:54.195Z,58.10
2017-10-03T00:43:54.247Z,58.10
2017-10-03T00:44:54.168Z,57.20
2017-10-03T00:45:54.257Z,56.30
2017-10-03T00:46:54.142Z,58.20
2017-10-03T00:47:54.162Z,57.60
2017-10-03T00:48:54.101Z,57.70
2017-10-03T00:49:54.196Z,57.40
2017-10-03T00:50:54.073Z,56.60
2017-10-03T00:51:54.093Z,58.10
2017-10-03T00:52:54.038Z,58.10
2017-10-03T00:53:54.115Z,56.90
2017-10-03T00:54:54.008Z,56.50
2017-10-03T00:55:54.131Z,57.90
2017-10-03T00:56:53.982Z,57.80
2017-10-03T00:57:54.038Z,56.70
2017-10-03T00:58:53.943Z,57.40
2017-10-03T00:59:54.052Z,57.50
2017-10-03T01:00:53.911Z,58.80
2017-10-03T01:01:53.963Z,57.20
2017-10-03T01:02:53.889Z,57.90
2017-10-03T01:03:53.979Z,57.80
2017-10-03T01:04:53.836Z,58.60
2017-10-03T01:05:53.895Z,58.70
2017-10-03T01:06:53.810Z,58.90
2017-10-03T01:07:53.906Z,59.00
2017-10-03T01:08:53.779Z,58.80
2017-10-03T01:09:53.765Z,58.10
2017-10-03T01:10:53.821Z,58.50
2017-10-03T01:11:53.728Z,59.20
2017-10-03T01:12:53.837Z,58.40
2017-10-03T01:13:53.705Z,59.20
2017-10-03T01:14:53.744Z,57.20
2017-10-03T01:15:53.669Z,57.50
2017-10-03T01:16:53.774Z,58.20
2017-10-03T01:17:53.640Z,58.00
2017-10-03T01:18:53.677Z,59.70
2017-10-03T01:19:53.600Z,58.00
2017-10-03T01:20:53.684Z,58.10
2017-10-03T01:21:53.557Z,58.40
2017-10-03T01:22:53.615Z,56.80
2017-10-03T01:23:53.530Z,57.70
2017-10-03T01:24:53.621Z,57.20
2017-10-03T01:25:53.491Z,57.30
2017-10-03T01:26:53.535Z,56.90
2017-10-03T01:27:53.466Z,56.00
2017-10-03T01:28:53.541Z,57.60
2017-10-03T01:29:53.430Z,56.30
2017-10-03T01:30:53.454Z,56.80
2017-10-03T01:31:53.409Z,55.70
2017-10-03T01:32:53.475Z,55.70
2017-10-03T01:33:53.381Z,56.70
2017-10-03T01:34:53.488Z,56.00
2017-10-03T01:35:53.336Z,57.10
2017-10-03T01:36:53.401Z,56.10
2017-10-03T01:37:53.305Z,57.40
2017-10-03T01:38:53.418Z,55.80
2017-10-03T01:39:53.280Z,55.50
2017-10-03T01:40:53.338Z,56.20
2017-10-03T01:41:53.240Z,55.80
2017-10-03T01:42:53.349Z,56.30
2017-10-03T01:43:53.208Z,55.30
2017-10-03T01:44:53.253Z,55.70
2017-10-03T01:45:53.202Z,55.20
2017-10-03T01:46:53.269Z,55.40
2017-10-03T01:47:53.198Z,55.50
2017-10-03T01:48:53.180Z,55.60
2017-10-03T01:49:53.129Z,56.10
2017-10-03T01:50:53.196Z,54.50
2017-10-03T01:51:53.085Z,57.70
2017-10-03T01:52:53.108Z,56.00
2017-10-03T01:53:53.056Z,56.30
2017-10-03T01:54:53.123Z,55.00
2017-10-03T01:55:53.031Z,55.40
2017-10-03T01:56:53.127Z,56.10
2017-10-03T01:57:52.987Z,55.20
2017-10-03T01:58:53.053Z,55.20
2017-10-03T01:59:52.961Z,54.90
2017-10-03T02:00:53.060Z,56.00
2017-10-03T02:01:52.922Z,55.00
2017-10-03T02:02:52.975Z,52.80
2017-10-03T02:03:52.895Z,55.00
2017-10-03T02:04:52.985Z,54.50
2017-10-03T02:05:52.862Z,53.80
2017-10-03T02:06:52.901Z,53.50
2017-10-03T02:07:52.823Z,53.10
2017-10-03T02:08:52.905Z,53.70
2017-10-03T02:09:52.802Z,53.00
2017-10-03T02:10:52.789Z,54.20
2017-10-03T02:11:52.837Z,53.80
2017-10-03T02:12:52.750Z,53.50
2017-10-03T02:13:52.849Z,52.90
2017-10-03T02:14:52.728Z,52.90
2017-10-03T02:15:52.765Z,54.00
2017-10-03T02:16:52.750Z,53.40
2017-10-03T02:17:52.767Z,52.80
2017-10-03T02:18:52.659Z,53.50
2017-10-03T02:19:52.682Z,52.80
2017-10-03T02:20:52.637Z,53.70
2017-10-03T02:21:52.703Z,53.50
2017-10-03T02:22:52.596Z,53.60
2017-10-03T02:23:52.625Z,53.20
2017-10-03T02:24:52.556Z,52.60
2017-10-03T02:25:52.629Z,53.20
2017-10-03T02:26:52.524Z,52.80
2017-10-03T02:27:52.537Z,53.20
2017-10-03T02:28:52.497Z,52.90
2017-10-03T02:29:52.553Z,54.00
2017-10-03T02:30:52.450Z,53.10
2017-10-03T02:31:52.562Z,53.40
2017-10-03T02:32:52.427Z,53.50
2017-10-03T02:33:52.481Z,52.50
2017-10-03T02:34:52.407Z,54.40
2017-10-03T02:35:52.499Z,53.70
2017-10-03T02:36:52.362Z,54.50
2017-10-03T02:37:52.401Z,52.90
2017-10-03T02:38:52.322Z,53.80
2017-10-03T02:39:52.420Z,53.20
2017-10-03T02:40:52.294Z,53.10
2017-10-03T02:41:52.338Z,53.50
2017-10-03T02:42:52.261Z,54.20
2017-10-03T02:43:52.350Z,53.70
2017-10-03T02:44:52.236Z,53.60
2017-10-03T02:45:52.263Z,53.80
2017-10-03T02:46:52.208Z,53.20
2017-10-03T02:47:52.270Z,53.10
2017-10-03T02:48:52.166Z,53.80
2017-10-03T02:49:52.186Z,54.40
2017-10-03T02:50:52.137Z,53.90
2017-10-03T02:51:52.204Z,53.60
2017-10-03T02:52:52.104Z,53.70
2017-10-03T02:53:52.224Z,54.20
2017-10-03T02:54:52.076Z,54.80
2017-10-03T02:55:52.127Z,54.20
2017-10-03T02:56:52.041Z,54.10
2017-10-03T02:57:52.154Z,53.70
2017-10-03T02:58:52.006Z,54.70
2017-10-03T02:59:52.052Z,54.50
2017-10-03T03:00:51.972Z,53.80
2017-10-03T03:01:52.068Z,54.70
2017-10-03T03:02:51.962Z,54.90
2017-10-03T03:03:51.985Z,54.60
2017-10-03T03:04:51.920Z,56.10
2017-10-03T03:05:52.006Z,55.50
2017-10-03T03:06:51.879Z,54.90
2017-10-03T03:07:51.906Z,54.70
2017-10-03T03:08:51.848Z,55.20
2017-10-03T03:09:51.926Z,55.70
2017-10-03T03:10:51.817Z,54.40
2017-10-03T03:11:51.803Z,55.10
2017-10-03T03:12:51.845Z,56.60
2017-10-03T03:13:51.770Z,55.70
2017-10-03T03:14:51.860Z,55.70
2017-10-03T03:15:51.738Z,55.50
2017-10-03T03:16:51.770Z,55.60
2017-10-03T03:17:51.707Z,55.20
2017-10-03T03:18:51.781Z,56.10
2017-10-03T03:19:51.673Z,56.10
2017-10-03T03:20:51.695Z,55.30
2017-10-03T03:21:51.640Z,56.90
2017-10-03T03:22:51.707Z,56.70
2017-10-03T03:23:51.609Z,57.10
2017-10-03T03:24:51.618Z,57.40
2017-10-03T03:25:51.575Z,57.50
2017-10-03T03:26:51.637Z,57.20
2017-10-03T03:27:51.549Z,57.90
2017-10-03T03:28:51.651Z,58.90
2017-10-03T03:29:51.504Z,57.50
2017-10-03T03:30:51.566Z,56.90
2017-10-03T03:31:51.482Z,57.30
2017-10-03T03:32:51.578Z,57.60
2017-10-03T03:33:51.443Z,57.00
2017-10-03T03:34:51.489Z,58.40
2017-10-03T03:35:51.421Z,58.00
2017-10-03T03:36:51.505Z,59.10
2017-10-03T03:37:51.368Z,56.90
2017-10-03T03:38:51.420Z,57.40
2017-10-03T03:39:51.350Z,57.80
2017-10-03T03:40:51.439Z,58.10
2017-10-03T03:41:51.311Z,58.30
2017-10-03T03:42:51.351Z,58.10
2017-10-03T03:43:51.281Z,58.90
2017-10-03T03:44:51.357Z,57.70
2017-10-03T03:45:51.250Z,57.70
2017-10-03T03:46:51.273Z,59.00
2017-10-03T03:47:51.218Z,58.40
2017-10-03T03:48:51.284Z,58.80
2017-10-03T03:49:51.194Z,57.30
2017-10-03T03:50:51.197Z,58.60
2017-10-03T03:51:51.155Z,58.60
2017-10-03T03:52:51.214Z,59.50
2017-10-03T03:53:51.118Z,59.00
2017-10-03T03:54:51.224Z,59.00
2017-10-03T03:55:51.086Z,60.30
2017-10-03T03:56:51.136Z,57.80
2017-10-03T03:57:51.053Z,58.00
2017-10-03T03:58:51.148Z,59.10
2017-10-03T03:59:51.026Z,58.60
2017-10-03T04:00:51.066Z,60.40
2017-10-03T04:01:50.990Z,60.10
2017-10-03T04:02:51.070Z,59.30
2017-10-03T04:03:50.953Z,61.10
2017-10-03T04:04:50.988Z,60.90
2017-10-03T04:05:50.922Z,59.60
2017-10-03T04:06:51.006Z,60.00
2017-10-03T04:07:50.896Z,61.40
2017-10-03T04:08:50.921Z,60.10
2017-10-03T04:09:50.859Z,61.30
2017-10-03T04:10:50.932Z,62.90
2017-10-03T04:11:50.822Z,60.90
2017-10-03T04:12:50.814Z,61.50
2017-10-03T04:13:50.853Z,61.10
2017-10-03T04:14:50.779Z,61.90
2017-10-03T04:15:50.867Z,62.90
2017-10-03T04:16:50.744Z,62.10
2017-10-03T04:17:50.782Z,62.80
2017-10-03T04:18:50.699Z,63.30
2017-10-03T04:19:50.792Z,65.70
2017-10-03T04:20:50.667Z,63.80
2017-10-03T04:21:50.703Z,65.50
2017-10-03T04:22:50.643Z,63.40
2017-10-03T04:23:50.717Z,63.40
2017-10-03T04:24:50.612Z,64.90
2017-10-03T04:25:50.631Z,63.20
2017-10-03T04:26:50.580Z,64.00
2017-10-03T04:27:50.642Z,64.20
2017-10-03T04:28:50.547Z,65.50
2017-10-03T04:29:50.659Z,63.80
2017-10-03T04:30:50.517Z,66.20
2017-10-03T04:31:50.570Z,65.10
2017-10-03T04:32:50.480Z,63.40
2017-10-03T04:33:50.588Z,64.30
2017-10-03T04:34:50.436Z,63.00
2017-10-03T04:35:50.493Z,64.10
2017-10-03T04:36:50.408Z,63.40
2017-10-03T04:37:50.510Z,64.30
2017-10-03T04:38:50.368Z,62.20
2017-10-03T04:39:50.424Z,63.10
2017-10-03T04:40:50.342Z,62.90
2017-10-03T04:41:50.440Z,62.30
2017-10-03T04:42:50.302Z,63.00
2017-10-03T04:43:50.347Z,62.80
2017-10-03T04:44:50.277Z,61.20
2017-10-03T04:45:50.365Z,60.50
2017-10-03T04:46:50.244Z,61.10
2017-10-03T04:47:50.275Z,61.20
2017-10-03T04:48:50.216Z,60.30
2017-10-03T04:49:50.289Z,63.10
2017-10-03T04:50:50.173Z,60.80
2017-10-03T04:51:50.203Z,59.60
2017-10-03T04:52:50.144Z,59.00
2017-10-03T04:53:50.222Z,60.80
2017-10-03T04:54:50.098Z,59.70
2017-10-03T04:55:50.139Z,60.00
2017-10-03T04:56:50.073Z,59.70
2017-10-03T04:57:50.149Z,60.60
2017-10-03T04:58:50.040Z,59.60
2017-10-03T04:59:50.059Z,59.10
2017-10-03T05:00:50.025Z,59.40
2017-10-03T05:01:50.073Z,61.50
2017-10-03T05:02:49.968Z,59.70
2017-10-03T05:03:49.991Z,59.50
2017-10-03T05:04:49.936Z,59.60
2017-10-03T05:05:49.999Z,58.20
2017-10-03T05:06:49.907Z,58.40
2017-10-03T05:07:50.015Z,60.00
2017-10-03T05:08:49.868Z,58.20
2017-10-03T05:10:49.830Z,58.10
2017-10-03T05:11:49.942Z,58.30
2017-10-03T05:12:49.797Z,58.00
2017-10-03T05:13:49.787Z,58.40
2017-10-03T05:14:49.861Z,58.50
2017-10-03T05:15:49.752Z,58.50
2017-10-03T05:16:49.778Z,58.90
2017-10-03T05:17:49.730Z,58.70
2017-10-03T05:18:49.793Z,58.40
2017-10-03T05:19:49.684Z,58.60
2017-10-03T05:20:49.801Z,57.60
2017-10-03T05:21:49.659Z,58.30
2017-10-03T05:22:49.713Z,57.60
2017-10-03T05:23:49.615Z,59.10
2017-10-03T05:24:49.736Z,58.80
2017-10-03T05:25:49.586Z,58.20
2017-10-03T05:26:49.641Z,57.60
2017-10-03T05:27:49.545Z,57.30
2017-10-03T05:28:49.658Z,56.10
2017-10-03T05:29:49.521Z,58.90
2017-10-03T05:30:49.581Z,56.70
2017-10-03T05:31:49.471Z,57.90
2017-10-03T05:32:49.584Z,57.00
2017-10-03T05:33:49.442Z,57.30
2017-10-03T05:34:49.498Z,56.20
2017-10-03T05:35:49.408Z,58.10
2017-10-03T05:36:49.511Z,56.60
2017-10-03T05:37:49.388Z,57.60
2017-10-03T05:38:49.423Z,55.70
2017-10-03T05:39:49.349Z,56.30
2017-10-03T05:40:49.435Z,56.90
2017-10-03T05:41:49.304Z,56.70
2017-10-03T05:42:49.355Z,57.50
2017-10-03T05:43:49.276Z,56.30
2017-10-03T05:44:49.363Z,56.40
2017-10-03T05:45:49.233Z,56.80
2017-10-03T05:46:49.272Z,56.80
2017-10-03T05:47:49.211Z,56.80
2017-10-03T05:48:49.321Z,57.20
2017-10-03T05:49:49.162Z,56.10
2017-10-03T05:50:49.202Z,56.90
2017-10-03T05:51:49.132Z,56.60
2017-10-03T05:52:49.227Z,55.90
2017-10-03T05:53:49.095Z,56.70
2017-10-03T05:54:49.128Z,56.00
2017-10-03T05:55:49.062Z,56.60
2017-10-03T05:56:49.156Z,56.80
2017-10-03T05:57:49.052Z,56.30
2017-10-03T05:58:49.060Z,56.00
2017-10-03T05:59:49.013Z,57.20
2017-10-03T06:00:49.080Z,56.30
2017-10-03T06:01:48.969Z,56.30
2017-10-03T06:02:49.076Z,56.10
2017-10-03T06:03:48.938Z,55.90
2017-10-03T06:04:48.995Z,55.50
2017-10-03T06:05:48.914Z,55.50
2017-10-03T06:06:48.998Z,55.70
2017-10-03T06:07:48.866Z,57.40
2017-10-03T06:08:48.927Z,56.00
2017-10-03T06:09:48.828Z,56.00
2017-10-03T06:10:48.935Z,55.90
2017-10-03T06:11:48.800Z,55.30
2017-10-03T06:12:48.853Z,55.50
2017-10-03T06:13:48.766Z,56.60
2017-10-03T06:14:48.752Z,56.30
2017-10-03T06:15:48.772Z,56.80
2017-10-03T06:16:48.723Z,55.80
2017-10-03T06:17:48.786Z,56.20
2017-10-03T06:18:48.674Z,55.80
2017-10-03T06:19:48.801Z,56.70
2017-10-03T06:20:48.648Z,56.30
2017-10-03T06:21:48.702Z,56.20
2017-10-03T06:22:48.612Z,55.70
2017-10-03T06:23:48.717Z,56.00
2017-10-03T06:24:48.582Z,56.30
2017-10-03T06:25:48.726Z,57.10
2017-10-03T06:26:48.550Z,56.80
2017-10-03T06:27:48.679Z,55.40
2017-10-03T06:28:48.511Z,55.80
2017-10-03T06:29:48.567Z,57.10
2017-10-03T06:30:48.486Z,56.80
2017-10-03T06:32:48.441Z,55.90
2017-10-03T06:33:48.494Z,56.10
2017-10-03T06:34:48.410Z,56.80
2017-10-03T06:35:48.498Z,55.90
2017-10-03T06:36:48.374Z,56.50
2017-10-03T06:37:48.410Z,55.50
2017-10-03T06:38:48.353Z,56.50
2017-10-03T06:39:48.428Z,57.20
2017-10-03T06:40:48.303Z,55.10
2017-10-03T06:41:48.343Z,57.50
2017-10-03T06:42:48.279Z,57.70
2017-10-03T06:43:48.357Z,55.60
2017-10-03T06:44:48.237Z,57.00
2017-10-03T06:45:48.261Z,56.70
2017-10-03T06:46:48.203Z,56.00
2017-10-03T06:47:48.281Z,56.10
2017-10-03T06:48:48.175Z,56.50
2017-10-03T06:49:48.196Z,57.20
2017-10-03T06:50:48.150Z,56.50
2017-10-03T06:51:48.210Z,56.60
2017-10-03T06:52:48.109Z,55.70
2017-10-03T06:53:48.224Z,57.20
2017-10-03T06:54:48.073Z,55.50
2017-10-03T06:55:48.148Z,56.60
2017-10-03T06:56:48.038Z,55.80
2017-10-03T06:57:48.144Z,56.90
2017-10-03T06:58:48.007Z,57.60
2017-10-03T06:59:48.059Z,56.10
2017-10-03T07:00:47.974Z,57.20
2017-10-03T07:01:48.076Z,56.40
2017-10-03T07:02:47.935Z,56.50
2017-10-03T07:03:47.993Z,56.60
2017-10-03T07:04:47.908Z,56.00
2017-10-03T07:05:48.002Z,55.90
2017-10-03T07:06:47.869Z,56.50
2017-10-03T07:07:47.919Z,55.90
2017-10-03T07:08:47.839Z,55.80
2017-10-03T07:09:47.928Z,56.00
2017-10-03T07:10:47.800Z,57.30
2017-10-03T07:11:47.835Z,55.80
2017-10-03T07:12:47.767Z,57.20
2017-10-03T07:13:47.850Z,56.50
2017-10-03T07:14:47.736Z,57.70
2017-10-03T07:15:47.735Z,57.00
2017-10-03T07:16:47.776Z,55.90
2017-10-03T07:17:47.694Z,56.70
2017-10-03T07:18:47.788Z,56.20
2017-10-03T07:19:47.648Z,57.60
2017-10-03T07:20:47.701Z,56.10
2017-10-03T07:21:47.623Z,56.70
2017-10-03T07:22:47.725Z,56.80
2017-10-03T07:23:47.594Z,57.60
2017-10-03T07:24:47.623Z,57.00
2017-10-03T07:25:47.558Z,57.70
2017-10-03T07:26:47.642Z,56.20
2017-10-03T07:27:47.521Z,58.20
2017-10-03T07:28:47.549Z,56.80
2017-10-03T07:29:47.490Z,55.20
2017-10-03T07:30:47.574Z,56.10
2017-10-03T07:31:47.459Z,55.70
2017-10-03T07:32:47.481Z,56.40
2017-10-03T07:33:47.429Z,57.10
2017-10-03T07:34:47.498Z,56.60
2017-10-03T07:35:47.399Z,57.20
2017-10-03T07:36:47.514Z,56.10
2017-10-03T07:37:47.370Z,58.30
2017-10-03T07:38:47.426Z,56.40
2017-10-03T07:39:47.337Z,55.80
2017-10-03T07:40:47.364Z,57.20
2017-10-03T07:41:47.302Z,57.90
2017-10-03T07:42:47.348Z,58.20
2017-10-03T07:43:47.270Z,57.30
2017-10-03T07:44:47.363Z,57.00
2017-10-03T07:45:47.237Z,57.30
2017-10-03T07:46:47.271Z,58.10
2017-10-03T07:47:47.227Z,57.50
2017-10-03T07:48:47.983Z,57.80
2017-10-03T07:49:47.192Z,57.20
2017-10-03T07:50:47.299Z,57.70
2017-10-03T07:51:47.164Z,58.10
2017-10-03T07:52:47.215Z,58.60
2017-10-03T07:53:47.142Z,58.30
2017-10-03T07:54:47.228Z,57.70
2017-10-03T07:55:47.126Z,59.10
2017-10-03T07:56:47.139Z,57.90
2017-10-03T07:57:47.108Z,58.70
2017-10-03T07:58:47.161Z,58.50
2017-10-03T07:59:47.076Z,58.70
2017-10-03T08:00:47.172Z,58.70
2017-10-03T08:01:47.073Z,58.40
2017-10-03T08:02:47.186Z,58.90
2017-10-03T08:03:47.041Z,58.20
2017-10-03T08:04:47.096Z,58.20
2017-10-03T08:05:47.026Z,58.40
2017-10-03T08:06:47.112Z,58.40
2017-10-03T08:07:47.011Z,58.30
2017-10-03T08:08:47.028Z,58.40
2017-10-03T08:09:46.976Z,57.80
2017-10-03T08:10:47.036Z,58.90
2017-10-03T08:11:46.968Z,58.50
2017-10-03T08:12:47.061Z,58.00
2017-10-03T08:13:46.946Z,58.20
2017-10-03T08:14:47.071Z,58.30
2017-10-03T08:15:46.940Z,58.30
2017-10-03T08:16:46.935Z,58.10
2017-10-03T08:17:46.983Z,58.20
2017-10-03T08:18:46.905Z,57.90
2017-10-03T08:20:46.914Z,59.10
2017-10-03T08:21:47.014Z,58.10
2017-10-03T08:22:46.879Z,58.00
2017-10-03T08:23:46.946Z,58.10
2017-10-03T08:24:46.866Z,57.30
2017-10-03T08:25:46.946Z,57.70
2017-10-03T08:26:46.843Z,58.20
2017-10-03T08:27:46.955Z,56.60
2017-10-03T08:28:46.822Z,57.30
2017-10-03T08:29:46.862Z,56.30
2017-10-03T08:30:46.802Z,55.90
2017-10-03T08:31:46.966Z,56.10
2017-10-03T08:32:46.786Z,55.80
2017-10-03T08:33:46.841Z,57.10
2017-10-03T08:34:46.759Z,56.00
2017-10-03T08:35:46.808Z,56.50
2017-10-03T08:36:46.731Z,55.60
2017-10-03T08:37:46.893Z,55.20
2017-10-03T08:38:46.711Z,56.30
2017-10-03T08:39:46.731Z,55.40
2017-10-03T08:40:46.686Z,56.00
2017-10-03T08:41:46.751Z,56.20
2017-10-03T08:42:46.651Z,56.50
2017-10-03T08:43:46.771Z,56.10
2017-10-03T08:44:46.632Z,57.40
2017-10-03T08:45:46.683Z,55.40
2017-10-03T08:46:46.640Z,56.20
2017-10-03T08:47:46.688Z,56.50
2017-10-03T08:48:46.573Z,55.90
2017-10-03T08:49:46.614Z,55.90
2017-10-03T08:50:46.555Z,56.50
2017-10-03T08:51:46.622Z,56.20
2017-10-03T08:52:46.525Z,55.90
2017-10-03T08:53:46.638Z,55.70
2017-10-03T08:54:46.494Z,55.50
2017-10-03T08:55:46.551Z,55.90
2017-10-03T08:56:46.467Z,55.50
2017-10-03T08:57:46.559Z,55.60
2017-10-03T08:58:46.433Z,55.00
2017-10-03T08:59:46.475Z,55.40
2017-10-03T09:00:46.411Z,56.20
2017-10-03T09:01:46.485Z,55.20
2017-10-03T09:02:46.383Z,55.10
2017-10-03T09:03:46.398Z,55.40
2017-10-03T09:04:46.363Z,55.30
2017-10-03T09:05:46.415Z,55.60
2017-10-03T09:06:46.325Z,56.10
2017-10-03T09:07:46.426Z,56.30
2017-10-03T09:08:46.301Z,55.30
2017-10-03T09:09:46.349Z,55.20
2017-10-03T09:10:46.274Z,55.90
2017-10-03T09:11:46.355Z,56.60
2017-10-03T09:12:46.254Z,55.70
2017-10-03T09:13:46.265Z,54.80
2017-10-03T09:14:46.218Z,55.30
2017-10-03T09:15:46.298Z,55.60
2017-10-03T09:16:46.193Z,55.00
2017-10-03T09:17:46.300Z,56.20
2017-10-03T09:18:46.168Z,56.40
2017-10-03T09:19:46.209Z,55.40
2017-10-03T09:20:46.134Z,56.60
2017-10-03T09:21:46.221Z,55.40
2017-10-03T09:22:46.102Z,55.20
2017-10-03T09:23:46.138Z,55.90
2017-10-03T09:24:46.075Z,55.90
2017-10-03T09:25:46.149Z,55.80
2017-10-03T09:26:46.048Z,55.80
2017-10-03T09:27:46.164Z,55.30
2017-10-03T09:28:46.027Z,57.00
2017-10-03T09:29:46.082Z,56.80
2017-10-03T09:30:45.996Z,55.50
2017-10-03T09:31:46.094Z,56.40
2017-10-03T09:32:45.966Z,56.40
2017-10-03T09:33:46.002Z,56.70
2017-10-03T09:34:45.940Z,55.80
2017-10-03T09:35:46.019Z,56.20
2017-10-03T09:36:45.910Z,55.40
2017-10-03T09:37:46.032Z,55.30
2017-10-03T09:38:45.874Z,55.20
2017-10-03T09:39:45.948Z,55.80
2017-10-03T09:40:45.850Z,55.60
2017-10-03T09:41:45.956Z,55.60
2017-10-03T09:42:45.832Z,55.30
2017-10-03T09:43:45.828Z,54.70
2017-10-03T09:44:45.827Z,54.30
2017-10-03T09:45:45.883Z,54.90
2017-10-03T09:46:45.797Z,55.00
2017-10-03T09:47:45.793Z,55.00
2017-10-03T09:48:45.766Z,55.40
2017-10-03T09:49:45.812Z,55.60
2017-10-03T09:50:45.732Z,55.20
2017-10-03T09:51:45.818Z,56.20
2017-10-03T09:52:45.698Z,55.20
2017-10-03T09:53:45.739Z,54.20
2017-10-03T09:54:45.667Z,55.20
2017-10-03T09:55:45.753Z,55.20
2017-10-03T09:56:45.645Z,53.80
2017-10-03T09:57:45.662Z,54.70
2017-10-03T09:58:45.615Z,55.20
2017-10-03T09:59:45.678Z,54.30
2017-10-03T10:00:45.590Z,55.20
2017-10-03T10:01:45.685Z,54.60
2017-10-03T10:02:45.548Z,55.10
2017-10-03T10:03:45.604Z,54.90
2017-10-03T10:04:45.527Z,55.10
2017-10-03T10:05:45.617Z,55.10
2017-10-03T10:06:45.507Z,54.60
2017-10-03T10:07:45.536Z,55.20
2017-10-03T10:08:45.478Z,55.40
2017-10-03T10:09:45.542Z,55.20
2017-10-03T10:10:46.027Z,56.50
2017-10-03T10:11:45.561Z,55.30
2017-10-03T10:12:45.424Z,56.50
2017-10-03T10:13:45.471Z,57.60
2017-10-03T10:14:45.402Z,57.30
2017-10-03T10:15:45.491Z,56.30
2017-10-03T10:16:45.390Z,56.20
2017-10-03T10:17:45.503Z,56.10
2017-10-03T10:18:45.366Z,56.10
2017-10-03T10:19:45.366Z,56.00
2017-10-03T10:20:45.421Z,55.50
2017-10-03T10:21:45.328Z,54.70
2017-10-03T10:22:45.429Z,55.10
2017-10-03T10:23:45.312Z,53.60
2017-10-03T10:24:45.342Z,54.30
2017-10-03T10:25:45.282Z,54.50
2017-10-03T10:26:45.364Z,55.50
2017-10-03T10:27:45.276Z,55.20
2017-10-03T10:28:45.379Z,55.60
2017-10-03T10:29:45.250Z,54.70
2017-10-03T10:30:45.284Z,54.90
2017-10-03T10:31:45.213Z,54.70
2017-10-03T10:32:45.309Z,55.70
2017-10-03T10:33:45.201Z,58.00
2017-10-03T10:34:45.310Z,57.10
2017-10-03T10:35:45.187Z,57.20
2017-10-03T10:36:45.244Z,57.40
2017-10-03T10:37:45.184Z,57.70
2017-10-03T10:38:45.256Z,58.60
2017-10-03T10:39:45.166Z,58.50
2017-10-03T10:40:45.258Z,59.30
2017-10-03T10:41:45.171Z,58.40
2017-10-03T10:42:45.281Z,57.30
2017-10-03T10:43:45.154Z,56.10
2017-10-03T10:44:45.190Z,56.60
2017-10-03T10:45:45.146Z,56.70
2017-10-03T10:46:45.207Z,55.80
2017-10-03T10:47:45.142Z,56.80
2017-10-03T10:48:45.222Z,57.20
2017-10-03T10:49:45.136Z,56.00
2017-10-03T10:50:45.237Z,56.10
2017-10-03T10:51:45.108Z,56.30
2017-10-03T10:52:45.144Z,58.10
2017-10-03T10:53:45.106Z,57.40
2017-10-03T10:54:45.158Z,58.10
2017-10-03T10:55:45.104Z,58.70
2017-10-03T10:56:45.170Z,57.50
2017-10-03T10:57:45.099Z,58.20
2017-10-03T10:58:45.184Z,56.60
2017-10-03T10:59:45.088Z,56.60
2017-10-03T11:00:45.203Z,55.90
2017-10-03T11:01:45.075Z,56.50
2017-10-03T11:02:45.110Z,56.40
2017-10-03T11:03:45.063Z,56.90
2017-10-03T11:04:45.069Z,57.00
2017-10-03T11:05:45.061Z,57.90
2017-10-03T11:06:45.145Z,57.80
2017-10-03T11:07:45.043Z,56.30
2017-10-03T11:08:45.151Z,56.50
2017-10-03T11:09:45.091Z,56.10
2017-10-03T11:10:45.067Z,56.00
2017-10-03T11:11:45.026Z,56.30
2017-10-03T11:12:45.077Z,57.00
2017-10-03T11:13:45.034Z,56.10
2017-10-03T11:14:45.097Z,56.70
2017-10-03T11:15:45.545Z,56.30
2017-10-03T11:16:45.105Z,56.40
2017-10-03T11:17:45.062Z,56.50
2017-10-03T11:18:45.024Z,55.20
2017-10-03T11:19:44.982Z,55.70
2017-10-03T11:20:44.979Z,55.40
2017-10-03T11:21:45.045Z,54.80
2017-10-03T11:22:44.961Z,55.90
2017-10-03T11:23:45.093Z,54.80
2017-10-03T11:24:44.942Z,54.40
2017-10-03T11:25:44.969Z,55.20
2017-10-03T11:26:44.922Z,54.40
2017-10-03T11:27:44.984Z,53.90
2017-10-03T11:28:44.909Z,54.00
2017-10-03T11:29:45.000Z,54.50
2017-10-03T11:30:44.896Z,54.20
2017-10-03T11:31:44.910Z,53.90
2017-10-03T11:32:44.867Z,53.70
2017-10-03T11:33:44.917Z,53.50
2017-10-03T11:34:44.838Z,53.30
2017-10-03T11:35:44.941Z,53.10
2017-10-03T11:36:44.819Z,53.70
2017-10-03T11:37:44.852Z,53.30
2017-10-03T11:38:44.794Z,53.20
2017-10-03T11:39:44.869Z,53.80
2017-10-03T11:40:44.777Z,53.20
2017-10-03T11:41:44.881Z,53.60
2017-10-03T11:42:44.749Z,53.30
2017-10-03T11:43:44.791Z,53.20
2017-10-03T11:44:44.729Z,53.10
2017-10-03T11:45:44.806Z,52.70
2017-10-03T11:46:44.706Z,53.40
2017-10-03T11:47:44.821Z,53.10
2017-10-03T11:48:44.673Z,53.60
2017-10-03T11:49:45.604Z,53.70
2017-10-03T11:50:44.740Z,53.60
2017-10-03T11:51:44.643Z,53.90
2017-10-03T11:52:44.757Z,53.80
2017-10-03T11:53:44.627Z,53.80
2017-10-03T11:54:44.670Z,53.80
2017-10-03T11:55:44.607Z,53.80
2017-10-03T11:56:44.685Z,53.60
2017-10-03T11:57:44.579Z,53.90
2017-10-03T11:58:44.691Z,52.60
2017-10-03T11:59:44.553Z,52.70
2017-10-03T12:00:44.611Z,53.20
2017-10-03T12:01:44.537Z,53.50
2017-10-03T12:02:44.643Z,53.00
2017-10-03T12:03:44.517Z,52.90
2017-10-03T12:04:44.538Z,53.60
2017-10-03T12:05:44.490Z,53.30
2017-10-03T12:06:44.555Z,54.00
2017-10-03T12:07:44.471Z,53.90
2017-10-03T12:08:44.561Z,54.20
2017-10-03T12:09:44.453Z,54.20
2017-10-03T12:10:44.473Z,54.70
2017-10-03T12:11:44.437Z,53.90
2017-10-03T12:12:44.498Z,53.90
2017-10-03T12:13:44.406Z,55.00
2017-10-03T12:14:44.511Z,53.50
2017-10-03T12:15:44.386Z,53.90
2017-10-03T12:16:44.417Z,53.80
2017-10-03T12:17:44.382Z,53.50
2017-10-03T12:18:44.433Z,53.30
2017-10-03T12:19:44.346Z,53.80
2017-10-03T12:20:44.451Z,53.60
2017-10-03T12:21:44.325Z,53.10
2017-10-03T12:22:44.361Z,52.90
2017-10-03T12:23:44.298Z,53.50
2017-10-03T12:24:44.382Z,53.70
2017-10-03T12:25:44.278Z,53.50
2017-10-03T12:26:44.392Z,53.40
2017-10-03T12:27:44.247Z,52.70
2017-10-03T12:28:44.299Z,54.10
2017-10-03T12:29:44.229Z,53.40
2017-10-03T12:30:44.311Z,54.00
2017-10-03T12:31:44.197Z,54.00
2017-10-03T12:32:44.227Z,52.70
2017-10-03T12:33:44.196Z,53.20
2017-10-03T12:34:44.236Z,53.10
2017-10-03T12:35:44.156Z,53.50
2017-10-03T12:36:44.258Z,53.70
2017-10-03T12:37:44.122Z,53.50
2017-10-03T12:38:44.168Z,53.80
2017-10-03T12:39:44.097Z,53.30
2017-10-03T12:40:44.183Z,52.70
2017-10-03T12:41:44.075Z,53.40
2017-10-03T12:42:44.068Z,54.00
2017-10-03T12:43:44.062Z,53.20
2017-10-03T12:44:44.111Z,52.80
2017-10-03T12:45:44.015Z,52.60
2017-10-03T12:46:44.117Z,53.30
2017-10-03T12:47:44.000Z,52.40
2017-10-03T12:48:44.033Z,52.60
2017-10-03T12:49:43.967Z,53.10
2017-10-03T12:50:44.048Z,53.00
2017-10-03T12:51:43.942Z,52.50
2017-10-03T12:52:43.961Z,53.40
2017-10-03T12:53:43.915Z,52.50
2017-10-03T12:54:43.970Z,53.10
2017-10-03T12:55:43.886Z,53.20